sensor_id;sensor_type;location;lat;lon;timestamp;P1;durP1;ratioP1;P2;durP2;ratioP2
1062;SDS011;520;50.932;6.962;2022-08-01T00:00:03;1.27;;;1.17;;
1062;SDS011;520;50.932;6.962;2022-08-01T00:02:36;3.23;;;1.37;;
1062;SDS011;520;50.932;6.962;2022-08-01T00:05:08;2.33;;;1.40;;
1062;SDS011;520;50.932;6.962;2022-08-01T00:07:44;3.80;;;1.50;;
1062;SDS011;520;50.932;6.962;2022-08-01T00:10:15;1.63;;;1.53;;
1062;SDS011;520;50.932;6.962;2022-08-01T00:12:46;1.47;;;1.27;;
1062;SDS011;520;50.932;6.962;2022-08-01T00:15:26;1.50;;;1.40;;
1062;SDS011;520;50.932;6.962;2022-08-01T00:17:53;2.93;;;1.90;;
1062;SDS011;520;50.932;6.962;2022-08-01T00:20:20;1.60;;;1.50;;
1062;SDS011;520;50.932;6.962;2022-08-01T00:22:47;1.50;;;1.40;;
1062;SDS011;520;50.932;6.962;2022-08-01T00:25:21;1.80;;;1.60;;
1062;SDS011;520;50.932;6.962;2022-08-01T00:27:57;1.60;;;1.50;;
1062;SDS011;520;50.932;6.962;2022-08-01T00:30:24;2.67;;;1.53;;
1062;SDS011;520;50.932;6.962;2022-08-01T00:33:01;1.80;;;1.67;;
1062;SDS011;520;50.932;6.962;2022-08-01T00:35:28;2.27;;;1.63;;
1062;SDS011;520;50.932;6.962;2022-08-01T00:38:04;2.13;;;1.50;;
1062;SDS011;520;50.932;6.962;2022-08-01T00:40:33;1.20;;;1.10;;
1062;SDS011;520;50.932;6.962;2022-08-01T00:43:02;1.70;;;1.60;;
1062;SDS011;520;50.932;6.962;2022-08-01T00:45:29;3.27;;;1.70;;
1062;SDS011;520;50.932;6.962;2022-08-01T00:47:57;2.60;;;1.60;;
1062;SDS011;520;50.932;6.962;2022-08-01T00:53:23;2.00;;;1.80;;
1062;SDS011;520;50.932;6.962;2022-08-01T00:55:51;1.47;;;1.37;;
1062;SDS011;520;50.932;6.962;2022-08-01T00:58:36;1.97;;;1.60;;
1062;SDS011;520;50.932;6.962;2022-08-01T01:01:03;3.70;;;1.57;;
1062;SDS011;520;50.932;6.962;2022-08-01T01:03:30;1.73;;;1.63;;
1062;SDS011;520;50.932;6.962;2022-08-01T01:14:31;1.33;;;1.23;;
1062;SDS011;520;50.932;6.962;2022-08-01T01:17:05;1.93;;;1.70;;
1062;SDS011;520;50.932;6.962;2022-08-01T01:19:35;3.67;;;1.90;;
1062;SDS011;520;50.932;6.962;2022-08-01T01:24:55;1.70;;;1.60;;
1062;SDS011;520;50.932;6.962;2022-08-01T01:30:46;2.30;;;1.77;;
1062;SDS011;520;50.932;6.962;2022-08-01T01:33:17;2.47;;;1.93;;
1062;SDS011;520;50.932;6.962;2022-08-01T01:35:49;2.40;;;1.70;;
1062;SDS011;520;50.932;6.962;2022-08-01T01:38:23;2.37;;;2.20;;
1062;SDS011;520;50.932;6.962;2022-08-01T01:40:55;2.33;;;2.03;;
1062;SDS011;520;50.932;6.962;2022-08-01T01:43:23;2.27;;;2.03;;
1062;SDS011;520;50.932;6.962;2022-08-01T01:45:54;2.00;;;1.90;;
1062;SDS011;520;50.932;6.962;2022-08-01T01:48:21;2.30;;;2.10;;
1062;SDS011;520;50.932;6.962;2022-08-01T01:50:51;2.17;;;1.90;;
1062;SDS011;520;50.932;6.962;2022-08-01T01:53:22;2.30;;;2.10;;
1062;SDS011;520;50.932;6.962;2022-08-01T01:55:56;4.00;;;2.50;;
1062;SDS011;520;50.932;6.962;2022-08-01T01:58:34;2.50;;;2.10;;
1062;SDS011;520;50.932;6.962;2022-08-01T02:01:05;2.57;;;2.37;;
1062;SDS011;520;50.932;6.962;2022-08-01T02:04:02;2.83;;;2.20;;
1062;SDS011;520;50.932;6.962;2022-08-01T02:06:31;3.20;;;2.07;;
1062;SDS011;520;50.932;6.962;2022-08-01T02:09:10;2.50;;;2.30;;
1062;SDS011;520;50.932;6.962;2022-08-01T02:11:37;3.67;;;1.77;;
1062;SDS011;520;50.932;6.962;2022-08-01T02:14:24;2.47;;;2.20;;
1062;SDS011;520;50.932;6.962;2022-08-01T02:16:53;3.57;;;2.13;;
1062;SDS011;520;50.932;6.962;2022-08-01T02:19:41;2.67;;;2.40;;
1062;SDS011;520;50.932;6.962;2022-08-01T02:22:14;4.30;;;2.20;;
1062;SDS011;520;50.932;6.962;2022-08-01T02:24:50;1.80;;;1.60;;
1062;SDS011;520;50.932;6.962;2022-08-01T02:27:24;3.40;;;2.13;;
1062;SDS011;520;50.932;6.962;2022-08-01T02:29:59;1.67;;;1.57;;
1062;SDS011;520;50.932;6.962;2022-08-01T02:32:36;2.40;;;2.10;;
1062;SDS011;520;50.932;6.962;2022-08-01T02:35:09;2.67;;;2.47;;
1062;SDS011;520;50.932;6.962;2022-08-01T02:37:44;4.53;;;2.07;;
1062;SDS011;520;50.932;6.962;2022-08-01T02:40:16;2.47;;;2.27;;
1062;SDS011;520;50.932;6.962;2022-08-01T02:42:46;2.73;;;2.53;;
1062;SDS011;520;50.932;6.962;2022-08-01T02:45:25;3.00;;;2.27;;
1062;SDS011;520;50.932;6.962;2022-08-01T02:48:01;4.90;;;2.90;;
1062;SDS011;520;50.932;6.962;2022-08-01T02:50:44;3.53;;;3.00;;
1062;SDS011;520;50.932;6.962;2022-08-01T02:53:14;2.90;;;2.63;;
1062;SDS011;520;50.932;6.962;2022-08-01T02:56:07;3.93;;;2.80;;
1062;SDS011;520;50.932;6.962;2022-08-01T02:58:36;4.70;;;2.87;;
1062;SDS011;520;50.932;6.962;2022-08-01T03:01:04;3.37;;;3.00;;
1062;SDS011;520;50.932;6.962;2022-08-01T03:03:36;3.00;;;2.77;;
1062;SDS011;520;50.932;6.962;2022-08-01T03:06:12;4.27;;;2.80;;
1062;SDS011;520;50.932;6.962;2022-08-01T03:08:40;3.57;;;3.27;;
1062;SDS011;520;50.932;6.962;2022-08-01T03:11:08;2.80;;;2.60;;
1062;SDS011;520;50.932;6.962;2022-08-01T03:13:37;2.50;;;2.17;;
1062;SDS011;520;50.932;6.962;2022-08-01T03:16:17;4.10;;;3.13;;
1062;SDS011;520;50.932;6.962;2022-08-01T03:18:53;2.80;;;2.60;;
1062;SDS011;520;50.932;6.962;2022-08-01T03:21:25;3.63;;;2.57;;
1062;SDS011;520;50.932;6.962;2022-08-01T03:24:03;5.20;;;2.70;;
1062;SDS011;520;50.932;6.962;2022-08-01T03:26:33;5.60;;;2.87;;
1062;SDS011;520;50.932;6.962;2022-08-01T03:31:59;3.33;;;2.93;;
1062;SDS011;520;50.932;6.962;2022-08-01T03:34:29;8.07;;;3.70;;
1062;SDS011;520;50.932;6.962;2022-08-01T03:37:05;3.87;;;2.50;;
1062;SDS011;520;50.932;6.962;2022-08-01T03:39:55;4.60;;;3.20;;
1062;SDS011;520;50.932;6.962;2022-08-01T03:42:26;3.30;;;3.00;;
1062;SDS011;520;50.932;6.962;2022-08-01T03:44:58;4.37;;;2.90;;
1062;SDS011;520;50.932;6.962;2022-08-01T03:47:30;3.10;;;2.87;;
1062;SDS011;520;50.932;6.962;2022-08-01T03:50:01;5.97;;;3.40;;
1062;SDS011;520;50.932;6.962;2022-08-01T03:52:33;4.37;;;3.60;;
1062;SDS011;520;50.932;6.962;2022-08-01T03:55:03;3.53;;;3.20;;
1062;SDS011;520;50.932;6.962;2022-08-01T03:57:47;4.47;;;3.97;;
1062;SDS011;520;50.932;6.962;2022-08-01T04:00:14;4.20;;;3.10;;
1062;SDS011;520;50.932;6.962;2022-08-01T04:02:48;4.30;;;3.73;;
1062;SDS011;520;50.932;6.962;2022-08-01T04:05:16;4.03;;;3.63;;
1062;SDS011;520;50.932;6.962;2022-08-01T04:07:46;4.90;;;3.90;;
1062;SDS011;520;50.932;6.962;2022-08-01T04:10:16;5.17;;;3.90;;
1062;SDS011;520;50.932;6.962;2022-08-01T04:12:44;4.90;;;3.93;;
1062;SDS011;520;50.932;6.962;2022-08-01T04:15:14;6.93;;;4.20;;
1062;SDS011;520;50.932;6.962;2022-08-01T04:17:43;5.63;;;4.00;;
1062;SDS011;520;50.932;6.962;2022-08-01T04:20:10;5.37;;;4.00;;
1062;SDS011;520;50.932;6.962;2022-08-01T04:22:37;4.90;;;4.50;;
1062;SDS011;520;50.932;6.962;2022-08-01T04:25:05;4.97;;;4.47;;
1062;SDS011;520;50.932;6.962;2022-08-01T04:27:42;6.03;;;4.00;;
1062;SDS011;520;50.932;6.962;2022-08-01T04:30:14;5.77;;;4.70;;
1062;SDS011;520;50.932;6.962;2022-08-01T04:32:55;7.80;;;4.57;;
1062;SDS011;520;50.932;6.962;2022-08-01T04:35:25;4.87;;;4.47;;
1062;SDS011;520;50.932;6.962;2022-08-01T04:38:13;8.23;;;3.80;;
1062;SDS011;520;50.932;6.962;2022-08-01T04:40:45;5.63;;;5.00;;
1062;SDS011;520;50.932;6.962;2022-08-01T04:43:12;7.97;;;5.60;;
1062;SDS011;520;50.932;6.962;2022-08-01T04:45:40;5.27;;;4.47;;
1062;SDS011;520;50.932;6.962;2022-08-01T04:48:13;4.60;;;4.20;;
1062;SDS011;520;50.932;6.962;2022-08-01T04:50:42;4.77;;;4.10;;
1062;SDS011;520;50.932;6.962;2022-08-01T04:53:14;5.03;;;4.53;;
1062;SDS011;520;50.932;6.962;2022-08-01T04:55:43;6.60;;;5.00;;
1062;SDS011;520;50.932;6.962;2022-08-01T04:58:12;6.77;;;5.23;;
1062;SDS011;520;50.932;6.962;2022-08-01T05:00:46;6.40;;;5.57;;
1062;SDS011;520;50.932;6.962;2022-08-01T05:03:13;4.80;;;4.40;;
1062;SDS011;520;50.932;6.962;2022-08-01T05:05:40;7.83;;;5.30;;
1062;SDS011;520;50.932;6.962;2022-08-01T05:08:09;7.23;;;5.27;;
1062;SDS011;520;50.932;6.962;2022-08-01T05:10:36;6.33;;;5.40;;
1062;SDS011;520;50.932;6.962;2022-08-01T05:13:14;5.10;;;4.60;;
1062;SDS011;520;50.932;6.962;2022-08-01T05:15:41;8.90;;;5.40;;
1062;SDS011;520;50.932;6.962;2022-08-01T05:18:18;6.17;;;5.57;;
1062;SDS011;520;50.932;6.962;2022-08-01T05:20:51;6.40;;;5.33;;
1062;SDS011;520;50.932;6.962;2022-08-01T05:23:20;7.33;;;6.43;;
1062;SDS011;520;50.932;6.962;2022-08-01T05:25:48;6.27;;;5.50;;
1062;SDS011;520;50.932;6.962;2022-08-01T05:28:23;7.03;;;6.17;;
1062;SDS011;520;50.932;6.962;2022-08-01T05:30:49;7.00;;;6.40;;
1062;SDS011;520;50.932;6.962;2022-08-01T05:33:20;6.43;;;5.83;;
1062;SDS011;520;50.932;6.962;2022-08-01T05:35:48;7.03;;;6.40;;
1062;SDS011;520;50.932;6.962;2022-08-01T05:38:15;6.60;;;6.00;;
1062;SDS011;520;50.932;6.962;2022-08-01T05:40:42;6.10;;;5.50;;
1062;SDS011;520;50.932;6.962;2022-08-01T05:43:09;7.70;;;6.20;;
1062;SDS011;520;50.932;6.962;2022-08-01T05:45:35;6.50;;;5.80;;
1062;SDS011;520;50.932;6.962;2022-08-01T05:48:02;7.87;;;7.00;;
1062;SDS011;520;50.932;6.962;2022-08-01T05:50:30;8.53;;;7.73;;
1062;SDS011;520;50.932;6.962;2022-08-01T05:52:56;8.17;;;7.37;;
1062;SDS011;520;50.932;6.962;2022-08-01T05:55:23;7.43;;;6.73;;
1062;SDS011;520;50.932;6.962;2022-08-01T05:57:50;10.43;;;7.97;;
1062;SDS011;520;50.932;6.962;2022-08-01T06:00:17;11.20;;;7.70;;
1062;SDS011;520;50.932;6.962;2022-08-01T06:02:43;9.13;;;8.33;;
1062;SDS011;520;50.932;6.962;2022-08-01T06:05:17;9.30;;;8.10;;
1062;SDS011;520;50.932;6.962;2022-08-01T06:07:44;10.63;;;8.77;;
1062;SDS011;520;50.932;6.962;2022-08-01T06:10:11;9.37;;;8.27;;
1062;SDS011;520;50.932;6.962;2022-08-01T06:12:38;11.20;;;8.50;;
1062;SDS011;520;50.932;6.962;2022-08-01T06:15:05;8.67;;;7.97;;
1062;SDS011;520;50.932;6.962;2022-08-01T06:17:35;11.47;;;10.47;;
1062;SDS011;520;50.932;6.962;2022-08-01T06:20:10;12.97;;;11.70;;
1062;SDS011;520;50.932;6.962;2022-08-01T06:22:37;12.40;;;10.20;;
1062;SDS011;520;50.932;6.962;2022-08-01T06:25:04;9.67;;;8.73;;
1062;SDS011;520;50.932;6.962;2022-08-01T06:27:35;9.90;;;8.60;;
1062;SDS011;520;50.932;6.962;2022-08-01T06:30:05;10.70;;;8.20;;
1062;SDS011;520;50.932;6.962;2022-08-01T06:32:33;11.37;;;8.30;;
1062;SDS011;520;50.932;6.962;2022-08-01T06:35:00;10.63;;;8.50;;
1062;SDS011;520;50.932;6.962;2022-08-01T06:37:30;9.57;;;8.63;;
1062;SDS011;520;50.932;6.962;2022-08-01T06:40:04;10.33;;;8.60;;
1062;SDS011;520;50.932;6.962;2022-08-01T06:42:32;10.20;;;9.20;;
1062;SDS011;520;50.932;6.962;2022-08-01T06:45:02;10.13;;;9.13;;
1062;SDS011;520;50.932;6.962;2022-08-01T06:47:29;8.53;;;7.73;;
1062;SDS011;520;50.932;6.962;2022-08-01T06:50:16;10.10;;;8.60;;
1062;SDS011;520;50.932;6.962;2022-08-01T06:52:54;10.57;;;9.47;;
1062;SDS011;520;50.932;6.962;2022-08-01T06:55:21;8.83;;;7.93;;
1062;SDS011;520;50.932;6.962;2022-08-01T06:57:48;9.40;;;7.80;;
1062;SDS011;520;50.932;6.962;2022-08-01T07:00:18;8.10;;;7.47;;
1062;SDS011;520;50.932;6.962;2022-08-01T07:02:55;9.43;;;8.33;;
1062;SDS011;520;50.932;6.962;2022-08-01T07:05:34;12.97;;;9.03;;
1062;SDS011;520;50.932;6.962;2022-08-01T07:08:01;12.10;;;8.53;;
1062;SDS011;520;50.932;6.962;2022-08-01T07:10:30;10.30;;;9.30;;
1062;SDS011;520;50.932;6.962;2022-08-01T07:12:58;9.57;;;8.07;;
1062;SDS011;520;50.932;6.962;2022-08-01T07:15:25;8.83;;;8.03;;
1062;SDS011;520;50.932;6.962;2022-08-01T07:17:52;9.27;;;8.37;;
1062;SDS011;520;50.932;6.962;2022-08-01T07:20:19;7.73;;;7.20;;
1062;SDS011;520;50.932;6.962;2022-08-01T07:22:46;10.37;;;9.37;;
1062;SDS011;520;50.932;6.962;2022-08-01T07:25:13;9.80;;;8.90;;
1062;SDS011;520;50.932;6.962;2022-08-01T07:27:46;9.43;;;8.53;;
1062;SDS011;520;50.932;6.962;2022-08-01T07:30:15;11.50;;;10.50;;
1062;SDS011;520;50.932;6.962;2022-08-01T07:32:42;10.00;;;9.10;;
1062;SDS011;520;50.932;6.962;2022-08-01T07:35:09;10.63;;;9.67;;
1062;SDS011;520;50.932;6.962;2022-08-01T07:37:36;10.93;;;9.70;;
1062;SDS011;520;50.932;6.962;2022-08-01T07:40:07;11.50;;;9.60;;
1062;SDS011;520;50.932;6.962;2022-08-01T07:42:34;9.73;;;8.73;;
1062;SDS011;520;50.932;6.962;2022-08-01T07:45:04;8.90;;;8.20;;
1062;SDS011;520;50.932;6.962;2022-08-01T07:47:32;9.50;;;8.57;;
1062;SDS011;520;50.932;6.962;2022-08-01T07:50:05;9.13;;;8.37;;
1062;SDS011;520;50.932;6.962;2022-08-01T07:52:32;9.00;;;8.07;;
1062;SDS011;520;50.932;6.962;2022-08-01T07:55:09;11.23;;;9.20;;
1062;SDS011;520;50.932;6.962;2022-08-01T07:57:37;9.80;;;8.90;;
1062;SDS011;520;50.932;6.962;2022-08-01T08:00:05;11.70;;;9.77;;
1062;SDS011;520;50.932;6.962;2022-08-01T08:02:33;10.27;;;9.27;;
1062;SDS011;520;50.932;6.962;2022-08-01T08:05:00;11.10;;;10.20;;
1062;SDS011;520;50.932;6.962;2022-08-01T08:07:35;9.60;;;8.73;;
1062;SDS011;520;50.932;6.962;2022-08-01T08:10:04;9.23;;;8.43;;
1062;SDS011;520;50.932;6.962;2022-08-01T08:12:31;9.30;;;8.40;;
1062;SDS011;520;50.932;6.962;2022-08-01T08:14:59;10.33;;;8.10;;
1062;SDS011;520;50.932;6.962;2022-08-01T08:17:27;9.07;;;8.20;;
1062;SDS011;520;50.932;6.962;2022-08-01T08:26:10;8.03;;;7.33;;
1062;SDS011;520;50.932;6.962;2022-08-01T08:28:39;8.07;;;6.90;;
1062;SDS011;520;50.932;6.962;2022-08-01T08:31:06;7.97;;;7.27;;
1062;SDS011;520;50.932;6.962;2022-08-01T08:33:50;8.40;;;6.93;;
1062;SDS011;520;50.932;6.962;2022-08-01T08:36:17;7.67;;;6.87;;
1062;SDS011;520;50.932;6.962;2022-08-01T08:38:44;10.60;;;8.30;;
1062;SDS011;520;50.932;6.962;2022-08-01T08:41:11;10.97;;;7.80;;
1062;SDS011;520;50.932;6.962;2022-08-01T08:43:49;8.23;;;7.53;;
1062;SDS011;520;50.932;6.962;2022-08-01T08:46:16;7.77;;;7.17;;
1062;SDS011;520;50.932;6.962;2022-08-01T08:48:44;9.00;;;7.80;;
1062;SDS011;520;50.932;6.962;2022-08-01T08:51:21;6.80;;;6.30;;
1062;SDS011;520;50.932;6.962;2022-08-01T08:53:53;7.40;;;6.80;;
1062;SDS011;520;50.932;6.962;2022-08-01T08:56:29;7.43;;;6.83;;
1062;SDS011;520;50.932;6.962;2022-08-01T08:59:07;7.13;;;6.60;;
1062;SDS011;520;50.932;6.962;2022-08-01T09:01:34;7.00;;;6.50;;
1062;SDS011;520;50.932;6.962;2022-08-01T09:04:04;8.10;;;7.40;;
1062;SDS011;520;50.932;6.962;2022-08-01T09:06:33;7.03;;;6.33;;
1062;SDS011;520;50.932;6.962;2022-08-01T09:09:03;6.90;;;6.30;;
1062;SDS011;520;50.932;6.962;2022-08-01T09:11:33;6.73;;;6.23;;
1062;SDS011;520;50.932;6.962;2022-08-01T09:19:41;7.10;;;6.60;;
1062;SDS011;520;50.932;6.962;2022-08-01T09:22:11;5.93;;;5.53;;
1062;SDS011;520;50.932;6.962;2022-08-01T09:24:40;7.33;;;6.83;;
1062;SDS011;520;50.932;6.962;2022-08-01T09:27:15;6.40;;;5.90;;
1062;SDS011;520;50.932;6.962;2022-08-01T09:29:45;5.70;;;5.23;;
1062;SDS011;520;50.932;6.962;2022-08-01T09:32:15;6.27;;;5.60;;
1062;SDS011;520;50.932;6.962;2022-08-01T09:34:41;6.67;;;6.17;;
1062;SDS011;520;50.932;6.962;2022-08-01T09:37:08;6.90;;;6.23;;
1062;SDS011;520;50.932;6.962;2022-08-01T09:39:36;7.63;;;6.90;;
1062;SDS011;520;50.932;6.962;2022-08-01T09:45:05;7.50;;;6.90;;
1062;SDS011;520;50.932;6.962;2022-08-01T09:47:38;10.20;;;7.30;;
1062;SDS011;520;50.932;6.962;2022-08-01T09:50:06;7.00;;;6.37;;
1062;SDS011;520;50.932;6.962;2022-08-01T09:52:36;6.03;;;5.53;;
1062;SDS011;520;50.932;6.962;2022-08-01T09:55:05;7.63;;;6.93;;
1062;SDS011;520;50.932;6.962;2022-08-01T09:57:35;6.97;;;6.30;;
1062;SDS011;520;50.932;6.962;2022-08-01T10:00:02;6.13;;;5.63;;
1062;SDS011;520;50.932;6.962;2022-08-01T10:02:34;6.50;;;6.00;;
1062;SDS011;520;50.932;6.962;2022-08-01T10:05:07;6.13;;;5.63;;
1062;SDS011;520;50.932;6.962;2022-08-01T10:07:36;5.40;;;5.00;;
1062;SDS011;520;50.932;6.962;2022-08-01T10:10:21;5.93;;;5.33;;
1062;SDS011;520;50.932;6.962;2022-08-01T10:12:47;5.53;;;5.03;;
1062;SDS011;520;50.932;6.962;2022-08-01T10:15:16;5.43;;;5.00;;
1062;SDS011;520;50.932;6.962;2022-08-01T10:17:53;6.13;;;4.73;;
1062;SDS011;520;50.932;6.962;2022-08-01T10:20:29;6.50;;;5.90;;
1062;SDS011;520;50.932;6.962;2022-08-01T10:22:59;7.97;;;5.20;;
1062;SDS011;520;50.932;6.962;2022-08-01T10:25:33;5.40;;;4.67;;
1062;SDS011;520;50.932;6.962;2022-08-01T10:28:15;5.60;;;5.07;;
1062;SDS011;520;50.932;6.962;2022-08-01T10:30:45;5.47;;;5.07;;
1062;SDS011;520;50.932;6.962;2022-08-01T10:33:13;5.73;;;5.23;;
1062;SDS011;520;50.932;6.962;2022-08-01T10:35:45;6.23;;;5.47;;
1062;SDS011;520;50.932;6.962;2022-08-01T10:38:13;4.97;;;4.60;;
1062;SDS011;520;50.932;6.962;2022-08-01T10:40:41;5.57;;;4.90;;
1062;SDS011;520;50.932;6.962;2022-08-01T10:43:09;4.90;;;4.50;;
1062;SDS011;520;50.932;6.962;2022-08-01T10:45:37;7.20;;;4.70;;
1062;SDS011;520;50.932;6.962;2022-08-01T10:48:12;5.40;;;5.00;;
1062;SDS011;520;50.932;6.962;2022-08-01T10:50:51;5.97;;;5.47;;
1062;SDS011;520;50.932;6.962;2022-08-01T10:53:23;5.97;;;5.57;;
1062;SDS011;520;50.932;6.962;2022-08-01T10:58:29;5.77;;;5.27;;
1062;SDS011;520;50.932;6.962;2022-08-01T11:03:41;7.17;;;4.03;;
1062;SDS011;520;50.932;6.962;2022-08-01T11:06:28;4.23;;;3.83;;
1062;SDS011;520;50.932;6.962;2022-08-01T11:12:00;3.77;;;3.57;;
1062;SDS011;520;50.932;6.962;2022-08-01T11:14:31;4.40;;;4.10;;
1062;SDS011;520;50.932;6.962;2022-08-01T11:28:24;4.43;;;4.13;;
1062;SDS011;520;50.932;6.962;2022-08-01T11:38:42;3.83;;;3.53;;
1062;SDS011;520;50.932;6.962;2022-08-01T11:52:01;3.63;;;3.40;;
1062;SDS011;520;50.932;6.962;2022-08-01T11:54:38;6.53;;;4.20;;
1062;SDS011;520;50.932;6.962;2022-08-01T11:59:42;4.23;;;3.93;;
1062;SDS011;520;50.932;6.962;2022-08-01T12:02:32;3.93;;;3.47;;
1062;SDS011;520;50.932;6.962;2022-08-01T12:05:07;3.10;;;2.90;;
1062;SDS011;520;50.932;6.962;2022-08-01T12:07:38;5.07;;;3.37;;
1062;SDS011;520;50.932;6.962;2022-08-01T12:10:13;4.70;;;3.10;;
1062;SDS011;520;50.932;6.962;2022-08-01T12:12:46;3.67;;;2.60;;
1062;SDS011;520;50.932;6.962;2022-08-01T12:15:17;3.77;;;3.40;;
1062;SDS011;520;50.932;6.962;2022-08-01T12:17:47;3.20;;;2.80;;
1062;SDS011;520;50.932;6.962;2022-08-01T12:20:43;2.90;;;2.70;;
1062;SDS011;520;50.932;6.962;2022-08-01T12:23:26;3.67;;;3.30;;
1062;SDS011;520;50.932;6.962;2022-08-01T12:25:53;3.97;;;3.60;;
1062;SDS011;520;50.932;6.962;2022-08-01T12:28:20;3.93;;;3.30;;
1062;SDS011;520;50.932;6.962;2022-08-01T12:30:47;3.70;;;3.40;;
1062;SDS011;520;50.932;6.962;2022-08-01T12:33:19;3.30;;;3.10;;
1062;SDS011;520;50.932;6.962;2022-08-01T12:35:46;3.27;;;3.07;;
1062;SDS011;520;50.932;6.962;2022-08-01T12:38:14;4.50;;;3.53;;
1062;SDS011;520;50.932;6.962;2022-08-01T12:40:51;3.77;;;3.43;;
1062;SDS011;520;50.932;6.962;2022-08-01T12:43:22;3.33;;;2.90;;
1062;SDS011;520;50.932;6.962;2022-08-01T12:45:55;3.90;;;3.50;;
1062;SDS011;520;50.932;6.962;2022-08-01T12:48:24;3.33;;;3.00;;
1062;SDS011;520;50.932;6.962;2022-08-01T12:50:52;3.10;;;2.80;;
1062;SDS011;520;50.932;6.962;2022-08-01T12:53:25;3.23;;;3.03;;
1062;SDS011;520;50.932;6.962;2022-08-01T12:56:06;3.23;;;2.70;;
1062;SDS011;520;50.932;6.962;2022-08-01T12:58:37;3.40;;;3.10;;
1062;SDS011;520;50.932;6.962;2022-08-01T13:01:10;2.57;;;2.40;;
1062;SDS011;520;50.932;6.962;2022-08-01T13:03:59;2.53;;;2.33;;
1062;SDS011;520;50.932;6.962;2022-08-01T13:06:30;3.20;;;2.47;;
1062;SDS011;520;50.932;6.962;2022-08-01T13:09:04;2.03;;;1.93;;
1062;SDS011;520;50.932;6.962;2022-08-01T13:11:31;2.30;;;2.10;;
1062;SDS011;520;50.932;6.962;2022-08-01T13:13:58;2.60;;;2.40;;
1062;SDS011;520;50.932;6.962;2022-08-01T13:16:26;2.57;;;2.37;;
1062;SDS011;520;50.932;6.962;2022-08-01T13:19:13;2.93;;;2.73;;
1062;SDS011;520;50.932;6.962;2022-08-01T13:21:54;3.50;;;2.07;;
1062;SDS011;520;50.932;6.962;2022-08-01T13:24:28;25.10;;;21.33;;
1062;SDS011;520;50.932;6.962;2022-08-01T13:29:32;1.97;;;1.87;;
1062;SDS011;520;50.932;6.962;2022-08-01T13:32:13;2.70;;;1.97;;
1062;SDS011;520;50.932;6.962;2022-08-01T13:34:48;2.23;;;2.10;;
1062;SDS011;520;50.932;6.962;2022-08-01T13:37:15;2.13;;;1.73;;
1062;SDS011;520;50.932;6.962;2022-08-01T13:39:44;2.43;;;2.23;;
1062;SDS011;520;50.932;6.962;2022-08-01T13:42:14;3.80;;;1.70;;
1062;SDS011;520;50.932;6.962;2022-08-01T13:44:44;3.43;;;1.77;;
1062;SDS011;520;50.932;6.962;2022-08-01T13:47:11;1.97;;;1.80;;
1062;SDS011;520;50.932;6.962;2022-08-01T13:49:41;1.90;;;1.80;;
1062;SDS011;520;50.932;6.962;2022-08-01T13:52:07;3.63;;;1.73;;
1062;SDS011;520;50.932;6.962;2022-08-01T13:54:35;2.03;;;1.83;;
1062;SDS011;520;50.932;6.962;2022-08-01T13:57:02;1.67;;;1.57;;
1062;SDS011;520;50.932;6.962;2022-08-01T13:59:29;3.43;;;2.00;;
1062;SDS011;520;50.932;6.962;2022-08-01T14:01:55;2.07;;;1.90;;
1062;SDS011;520;50.932;6.962;2022-08-01T14:04:22;2.30;;;2.10;;
1062;SDS011;520;50.932;6.962;2022-08-01T14:06:49;2.03;;;1.90;;
1062;SDS011;520;50.932;6.962;2022-08-01T14:09:16;2.53;;;1.57;;
1062;SDS011;520;50.932;6.962;2022-08-01T14:11:49;2.60;;;2.07;;
1062;SDS011;520;50.932;6.962;2022-08-01T14:14:18;3.20;;;1.80;;
1062;SDS011;520;50.932;6.962;2022-08-01T14:16:47;2.40;;;1.93;;
1062;SDS011;520;50.932;6.962;2022-08-01T14:19:14;1.87;;;1.77;;
1062;SDS011;520;50.932;6.962;2022-08-01T14:21:42;1.97;;;1.83;;
1062;SDS011;520;50.932;6.962;2022-08-01T14:24:09;2.40;;;2.20;;
1062;SDS011;520;50.932;6.962;2022-08-01T14:26:36;1.90;;;1.70;;
1062;SDS011;520;50.932;6.962;2022-08-01T14:29:02;1.90;;;1.50;;
1062;SDS011;520;50.932;6.962;2022-08-01T14:31:29;2.30;;;1.20;;
1062;SDS011;520;50.932;6.962;2022-08-01T14:33:59;1.90;;;1.67;;
1062;SDS011;520;50.932;6.962;2022-08-01T14:36:26;2.00;;;1.90;;
1062;SDS011;520;50.932;6.962;2022-08-01T14:38:56;2.87;;;2.10;;
1062;SDS011;520;50.932;6.962;2022-08-01T14:41:24;1.60;;;1.50;;
1062;SDS011;520;50.932;6.962;2022-08-01T14:43:56;4.67;;;1.63;;
1062;SDS011;520;50.932;6.962;2022-08-01T14:46:23;1.67;;;1.57;;
1062;SDS011;520;50.932;6.962;2022-08-01T14:48:56;1.77;;;1.67;;
1062;SDS011;520;50.932;6.962;2022-08-01T14:51:25;1.43;;;1.33;;
1062;SDS011;520;50.932;6.962;2022-08-01T14:53:52;1.30;;;1.20;;
1062;SDS011;520;50.932;6.962;2022-08-01T14:56:20;1.83;;;1.73;;
1062;SDS011;520;50.932;6.962;2022-08-01T14:58:46;2.13;;;1.93;;
1062;SDS011;520;50.932;6.962;2022-08-01T15:01:14;1.83;;;1.73;;
1062;SDS011;520;50.932;6.962;2022-08-01T15:03:42;1.63;;;1.53;;
1062;SDS011;520;50.932;6.962;2022-08-01T15:06:08;3.53;;;2.17;;
1062;SDS011;520;50.932;6.962;2022-08-01T15:08:37;2.50;;;1.87;;
1062;SDS011;520;50.932;6.962;2022-08-01T15:11:10;1.60;;;1.50;;
1062;SDS011;520;50.932;6.962;2022-08-01T15:13:40;2.13;;;1.93;;
1062;SDS011;520;50.932;6.962;2022-08-01T15:16:08;3.57;;;2.37;;
1062;SDS011;520;50.932;6.962;2022-08-01T15:18:34;2.53;;;2.00;;
1062;SDS011;520;50.932;6.962;2022-08-01T15:21:04;2.17;;;1.97;;
1062;SDS011;520;50.932;6.962;2022-08-01T15:23:32;2.20;;;1.97;;
1062;SDS011;520;50.932;6.962;2022-08-01T15:26:01;2.63;;;1.60;;
1062;SDS011;520;50.932;6.962;2022-08-01T15:28:37;1.70;;;1.60;;
1062;SDS011;520;50.932;6.962;2022-08-01T15:31:04;4.50;;;1.60;;
1062;SDS011;520;50.932;6.962;2022-08-01T15:33:31;2.97;;;2.17;;
1062;SDS011;520;50.932;6.962;2022-08-01T15:35:58;2.93;;;2.17;;
1062;SDS011;520;50.932;6.962;2022-08-01T15:38:25;2.77;;;2.43;;
1062;SDS011;520;50.932;6.962;2022-08-01T15:40:52;2.40;;;2.20;;
1062;SDS011;520;50.932;6.962;2022-08-01T15:43:18;1.73;;;1.63;;
1062;SDS011;520;50.932;6.962;2022-08-01T15:45:47;2.50;;;2.30;;
1062;SDS011;520;50.932;6.962;2022-08-01T15:48:17;2.43;;;2.23;;
1062;SDS011;520;50.932;6.962;2022-08-01T15:50:44;4.00;;;2.17;;
1062;SDS011;520;50.932;6.962;2022-08-01T15:53:11;2.17;;;1.90;;
1062;SDS011;520;50.932;6.962;2022-08-01T15:55:38;1.90;;;1.80;;
1062;SDS011;520;50.932;6.962;2022-08-01T15:58:05;2.40;;;1.80;;
1062;SDS011;520;50.932;6.962;2022-08-01T16:00:32;2.30;;;2.10;;
1062;SDS011;520;50.932;6.962;2022-08-01T16:03:04;1.97;;;1.83;;
1062;SDS011;520;50.932;6.962;2022-08-01T16:05:31;1.60;;;1.50;;
1062;SDS011;520;50.932;6.962;2022-08-01T16:07:58;2.00;;;1.80;;
1062;SDS011;520;50.932;6.962;2022-08-01T16:10:27;2.00;;;1.90;;
1062;SDS011;520;50.932;6.962;2022-08-01T16:12:55;2.83;;;2.40;;
1062;SDS011;520;50.932;6.962;2022-08-01T16:15:22;2.53;;;2.33;;
1062;SDS011;520;50.932;6.962;2022-08-01T16:17:56;2.23;;;2.13;;
1062;SDS011;520;50.932;6.962;2022-08-01T16:20:23;2.20;;;2.10;;
1062;SDS011;520;50.932;6.962;2022-08-01T16:22:50;2.60;;;2.30;;
1062;SDS011;520;50.932;6.962;2022-08-01T16:25:17;5.00;;;2.50;;
1062;SDS011;520;50.932;6.962;2022-08-01T16:27:44;2.70;;;2.37;;
1062;SDS011;520;50.932;6.962;2022-08-01T16:30:11;2.73;;;2.53;;
1062;SDS011;520;50.932;6.962;2022-08-01T16:32:38;3.83;;;2.33;;
1062;SDS011;520;50.932;6.962;2022-08-01T16:35:05;3.60;;;2.43;;
1062;SDS011;520;50.932;6.962;2022-08-01T16:37:35;2.90;;;2.60;;
1062;SDS011;520;50.932;6.962;2022-08-01T16:40:02;2.60;;;2.40;;
1062;SDS011;520;50.932;6.962;2022-08-01T16:42:29;2.30;;;1.80;;
1062;SDS011;520;50.932;6.962;2022-08-01T16:44:57;2.60;;;2.40;;
1062;SDS011;520;50.932;6.962;2022-08-01T16:47:25;2.93;;;2.23;;
1062;SDS011;520;50.932;6.962;2022-08-01T16:49:51;2.90;;;2.70;;
1062;SDS011;520;50.932;6.962;2022-08-01T16:52:18;2.60;;;2.40;;
1062;SDS011;520;50.932;6.962;2022-08-01T16:54:46;3.40;;;2.90;;
1062;SDS011;520;50.932;6.962;2022-08-01T16:57:12;3.67;;;3.37;;
1062;SDS011;520;50.932;6.962;2022-08-01T16:59:40;2.87;;;2.67;;
1062;SDS011;520;50.932;6.962;2022-08-01T17:02:07;3.57;;;3.03;;
1062;SDS011;520;50.932;6.962;2022-08-01T17:04:35;3.60;;;3.30;;
1062;SDS011;520;50.932;6.962;2022-08-01T17:07:07;3.53;;;3.23;;
1062;SDS011;520;50.932;6.962;2022-08-01T17:09:35;3.23;;;3.03;;